KMSO/MSO METAR and TAF weather

Enter ICAO airport designator
Station Type Date Time Source
KMSO METAR 2019/02/20 22:56 UTC NOAA

KMSO 202256Z 01013KT 5SM HZ CLR M03/M10 A2969 RMK AO2 T10331100


Station Type Date Time Source
KMSO Decoded METAR 2019/02/20 22:56 UTC NOAA

MISSOULA INTERNATIONAL AIRPORT , MT, United States (KMSO) 46-55N 114-06W 975M
Feb 20, 2019 - 05:56 PM EST / 2019.02.20 2256 UTC
Wind: from the N (010 degrees) at 15 MPH (13 KT):0
Visibility: 5 mile(s):0
Sky conditions: clear
Weather: haze
Temperature: 26.1 F (-3.3 C)
Windchill: 14 F (-10 C):1
Dew Point: 14.0 F (-10.0 C)
Relative Humidity: 59%
Pressure (altimeter): 29.69 in. Hg (1005 hPa)
ob: KMSO 202256Z 01013KT 5SM HZ CLR M03/M10 A2969 RMK AO2 T10331100
cycle: 23

Station Type Date Time Source
KMSO TAF 2019/02/20 18:34 UTC NOAA

TAF KMSO 201732Z 2018/2118 VRB03KT 6SM BR VCSH SCT035 BKN050
FM202000 02004KT P6SM VCSH SCT040 BKN060
FM210300 09008KT 6SM -SN SCT030 OVC040
FM210500 12010G18KT 5SM BLSN BKN070
FM211200 12011KT P6SM SCT050


Example: see airport list